sensor_id;sensor_type;location;lat;lon;timestamp;temperature;humidity
1958;DHT22;979;51.076;13.748;2022-11-02T13:47:15;17.20;63.30
1958;DHT22;979;51.076;13.748;2022-11-02T13:49:57;17.30;63.80
1958;DHT22;979;51.076;13.748;2022-11-02T13:52:37;17.30;64.10
1958;DHT22;979;51.076;13.748;2022-11-02T13:55:26;17.50;63.60
1958;DHT22;979;51.076;13.748;2022-11-02T13:58:45;17.60;62.60
1958;DHT22;979;51.076;13.748;2022-11-02T14:01:38;17.60;61.80
1958;DHT22;979;51.076;13.748;2022-11-02T14:04:28;17.50;61.30
1958;DHT22;979;51.076;13.748;2022-11-02T14:07:37;17.60;61.50
1958;DHT22;979;51.076;13.748;2022-11-02T14:10:27;17.60;61.50
1958;DHT22;979;51.076;13.748;2022-11-02T14:13:15;17.50;61.10
1958;DHT22;979;51.076;13.748;2022-11-02T14:15:53;17.50;61.20
1958;DHT22;979;51.076;13.748;2022-11-02T14:18:31;17.50;61.10
1958;DHT22;979;51.076;13.748;2022-11-02T14:25:03;17.40;60.90
1958;DHT22;979;51.076;13.748;2022-11-02T14:27:38;17.40;60.80
1958;DHT22;979;51.076;13.748;2022-11-02T14:30:40;17.40;61.20
1958;DHT22;979;51.076;13.748;2022-11-02T14:33:42;17.30;60.70
1958;DHT22;979;51.076;13.748;2022-11-02T14:36:36;17.30;60.80
1958;DHT22;979;51.076;13.748;2022-11-02T14:39:44;17.20;60.80
1958;DHT22;979;51.076;13.748;2022-11-02T14:42:47;17.00;60.70
1958;DHT22;979;51.076;13.748;2022-11-02T14:45:54;17.10;60.80
1958;DHT22;979;51.076;13.748;2022-11-02T14:48:50;16.90;60.60
1958;DHT22;979;51.076;13.748;2022-11-02T14:51:26;17.00;60.80
1958;DHT22;979;51.076;13.748;2022-11-02T14:54:36;17.00;61.00
1958;DHT22;979;51.076;13.748;2022-11-02T14:57:49;17.10;61.10
1958;DHT22;979;51.076;13.748;2022-11-02T15:00:57;16.90;61.10
1958;DHT22;979;51.076;13.748;2022-11-02T15:03:42;16.90;61.00
1958;DHT22;979;51.076;13.748;2022-11-02T15:06:36;16.80;61.40
1958;DHT22;979;51.076;13.748;2022-11-02T15:09:56;16.70;61.60
1958;DHT22;979;51.076;13.748;2022-11-02T15:12:40;16.60;61.10
1958;DHT22;979;51.076;13.748;2022-11-02T15:15:36;16.60;61.40
1958;DHT22;979;51.076;13.748;2022-11-02T15:18:23;16.50;61.70
1958;DHT22;979;51.076;13.748;2022-11-02T15:21:23;16.50;61.90
1958;DHT22;979;51.076;13.748;2022-11-02T15:24:24;16.40;61.60
1958;DHT22;979;51.076;13.748;2022-11-02T15:27:19;16.40;62.20
1958;DHT22;979;51.076;13.748;2022-11-02T15:30:26;16.40;62.30
1958;DHT22;979;51.076;13.748;2022-11-02T15:33:05;16.20;62.20
1958;DHT22;979;51.076;13.748;2022-11-02T15:35:51;16.20;62.40
1958;DHT22;979;51.076;13.748;2022-11-02T15:39:01;16.00;62.40
1958;DHT22;979;51.076;13.748;2022-11-02T15:42:03;16.00;62.50
1958;DHT22;979;51.076;13.748;2022-11-02T15:45:24;15.90;62.30
1958;DHT22;979;51.076;13.748;2022-11-02T15:51:59;15.80;62.60
1958;DHT22;979;51.076;13.748;2022-11-02T15:54:56;15.70;62.70
1958;DHT22;979;51.076;13.748;2022-11-02T15:57:49;15.60;63.00
1958;DHT22;979;51.076;13.748;2022-11-02T16:04:37;15.50;63.00
1958;DHT22;979;51.076;13.748;2022-11-02T16:07:43;15.40;63.20
1958;DHT22;979;51.076;13.748;2022-11-02T16:10:39;15.50;63.80
1958;DHT22;979;51.076;13.748;2022-11-02T16:13:32;15.30;64.10
1958;DHT22;979;51.076;13.748;2022-11-02T16:16:51;15.30;63.90
1958;DHT22;979;51.076;13.748;2022-11-02T16:20:13;15.20;63.70
1958;DHT22;979;51.076;13.748;2022-11-02T16:23:05;15.20;63.70
1958;DHT22;979;51.076;13.748;2022-11-02T16:25:53;15.10;64.00
1958;DHT22;979;51.076;13.748;2022-11-02T16:28:42;15.10;64.10
1958;DHT22;979;51.076;13.748;2022-11-02T16:31:52;15.10;63.70
1958;DHT22;979;51.076;13.748;2022-11-02T16:34:55;15.20;64.40
1958;DHT22;979;51.076;13.748;2022-11-02T16:37:42;14.90;64.00
1958;DHT22;979;51.076;13.748;2022-11-02T16:40:28;14.80;64.40
1958;DHT22;979;51.076;13.748;2022-11-02T16:46:27;14.60;65.10
1958;DHT22;979;51.076;13.748;2022-11-02T16:49:11;14.80;64.60
1958;DHT22;979;51.076;13.748;2022-11-02T16:52:13;14.30;64.20
1958;DHT22;979;51.076;13.748;2022-11-02T16:55:36;14.50;64.60
1958;DHT22;979;51.076;13.748;2022-11-02T16:58:37;14.40;64.80
1958;DHT22;979;51.076;13.748;2022-11-02T17:01:44;14.30;65.10
1958;DHT22;979;51.076;13.748;2022-11-02T17:04:38;14.20;65.30
1958;DHT22;979;51.076;13.748;2022-11-02T17:07:20;14.10;65.20
1958;DHT22;979;51.076;13.748;2022-11-02T17:10:17;14.00;65.20
1958;DHT22;979;51.076;13.748;2022-11-02T17:13:23;14.00;65.50
1958;DHT22;979;51.076;13.748;2022-11-02T17:16:19;13.90;66.00
1958;DHT22;979;51.076;13.748;2022-11-02T17:19:52;13.80;65.90
1958;DHT22;979;51.076;13.748;2022-11-02T17:22:50;13.50;66.20
1958;DHT22;979;51.076;13.748;2022-11-02T17:25:49;13.50;66.50
1958;DHT22;979;51.076;13.748;2022-11-02T17:28:49;13.60;66.90
1958;DHT22;979;51.076;13.748;2022-11-02T17:31:37;13.30;67.30
1958;DHT22;979;51.076;13.748;2022-11-02T17:34:25;13.20;67.30
1958;DHT22;979;51.076;13.748;2022-11-02T17:37:42;13.10;67.70
1958;DHT22;979;51.076;13.748;2022-11-02T17:40:47;13.00;67.30
1958;DHT22;979;51.076;13.748;2022-11-02T17:43:32;12.80;67.60
1958;DHT22;979;51.076;13.748;2022-11-02T17:46:17;12.90;68.40
1958;DHT22;979;51.076;13.748;2022-11-02T17:49:35;12.80;67.80
1958;DHT22;979;51.076;13.748;2022-11-02T17:52:26;12.70;67.80
1958;DHT22;979;51.076;13.748;2022-11-02T17:55:32;12.70;68.00
1958;DHT22;979;51.076;13.748;2022-11-02T17:58:17;12.60;68.20
1958;DHT22;979;51.076;13.748;2022-11-02T18:01:24;12.60;68.30
1958;DHT22;979;51.076;13.748;2022-11-02T18:04:15;12.30;68.20
1958;DHT22;979;51.076;13.748;2022-11-02T18:07:05;12.10;68.50
1958;DHT22;979;51.076;13.748;2022-11-02T18:13:26;12.00;68.70
1958;DHT22;979;51.076;13.748;2022-11-02T18:16:09;11.90;68.90
1958;DHT22;979;51.076;13.748;2022-11-02T18:18:44;11.80;68.40
1958;DHT22;979;51.076;13.748;2022-11-02T18:21:18;11.80;69.00
1958;DHT22;979;51.076;13.748;2022-11-02T18:24:15;11.90;69.10
1958;DHT22;979;51.076;13.748;2022-11-02T18:27:18;11.60;68.60
1958;DHT22;979;51.076;13.748;2022-11-02T18:30:21;11.50;68.70
1958;DHT22;979;51.076;13.748;2022-11-02T18:33:12;11.60;69.10
1958;DHT22;979;51.076;13.748;2022-11-02T18:36:09;11.60;69.20
1958;DHT22;979;51.076;13.748;2022-11-02T18:38:55;11.50;69.10
1958;DHT22;979;51.076;13.748;2022-11-02T18:45:23;11.30;69.10
1958;DHT22;979;51.076;13.748;2022-11-02T18:48:52;11.40;69.60
1958;DHT22;979;51.076;13.748;2022-11-02T18:51:36;11.30;69.40
1958;DHT22;979;51.076;13.748;2022-11-02T18:54:35;11.20;69.60
1958;DHT22;979;51.076;13.748;2022-11-02T18:57:24;11.20;69.70
1958;DHT22;979;51.076;13.748;2022-11-02T19:00:12;11.20;69.90
1958;DHT22;979;51.076;13.748;2022-11-02T19:02:59;11.20;69.70
1958;DHT22;979;51.076;13.748;2022-11-02T19:06:00;11.30;69.90
1958;DHT22;979;51.076;13.748;2022-11-02T19:08:56;10.70;69.20
1958;DHT22;979;51.076;13.748;2022-11-02T19:12:04;11.00;70.10
1958;DHT22;979;51.076;13.748;2022-11-02T19:15:19;10.90;70.30
1958;DHT22;979;51.076;13.748;2022-11-02T19:18:14;10.80;70.00
1958;DHT22;979;51.076;13.748;2022-11-02T19:21:10;10.80;70.00
1958;DHT22;979;51.076;13.748;2022-11-02T19:27:26;10.50;69.60
1958;DHT22;979;51.076;13.748;2022-11-02T19:30:15;10.70;70.30
1958;DHT22;979;51.076;13.748;2022-11-02T19:33:01;10.70;70.60
1958;DHT22;979;51.076;13.748;2022-11-02T19:35:53;10.80;70.70
1958;DHT22;979;51.076;13.748;2022-11-02T19:38:42;10.50;70.30
1958;DHT22;979;51.076;13.748;2022-11-02T19:41:47;10.70;70.60
1958;DHT22;979;51.076;13.748;2022-11-02T19:44:39;10.40;70.40
1958;DHT22;979;51.076;13.748;2022-11-02T19:48:02;10.30;70.40
1958;DHT22;979;51.076;13.748;2022-11-02T19:50:40;10.40;70.30
1958;DHT22;979;51.076;13.748;2022-11-02T19:53:51;10.10;70.50
1958;DHT22;979;51.076;13.748;2022-11-02T19:57:23;10.00;70.20
1958;DHT22;979;51.076;13.748;2022-11-02T20:00:03;9.90;71.50
1958;DHT22;979;51.076;13.748;2022-11-02T20:02:55;9.90;71.50
1958;DHT22;979;51.076;13.748;2022-11-02T20:05:38;9.90;71.80
1958;DHT22;979;51.076;13.748;2022-11-02T20:08:22;9.80;71.60
1958;DHT22;979;51.076;13.748;2022-11-02T20:18:27;9.80;71.50
1958;DHT22;979;51.076;13.748;2022-11-02T20:21:45;9.80;71.50
1958;DHT22;979;51.076;13.748;2022-11-02T20:25:14;9.70;71.70
1958;DHT22;979;51.076;13.748;2022-11-02T20:28:41;9.70;71.80
1958;DHT22;979;51.076;13.748;2022-11-02T20:31:41;9.60;71.70
1958;DHT22;979;51.076;13.748;2022-11-02T20:34:15;9.50;71.90
1958;DHT22;979;51.076;13.748;2022-11-02T20:37:02;9.60;72.20
1958;DHT22;979;51.076;13.748;2022-11-02T20:40:18;9.60;72.00
1958;DHT22;979;51.076;13.748;2022-11-02T20:42:53;9.60;72.00
1958;DHT22;979;51.076;13.748;2022-11-02T20:45:32;9.50;72.10
1958;DHT22;979;51.076;13.748;2022-11-02T20:48:15;9.60;72.10
1958;DHT22;979;51.076;13.748;2022-11-02T20:50:43;9.70;72.30
1958;DHT22;979;51.076;13.748;2022-11-02T20:53:12;9.50;72.00
1958;DHT22;979;51.076;13.748;2022-11-02T20:55:41;9.50;71.90
1958;DHT22;979;51.076;13.748;2022-11-02T20:58:09;9.40;71.90
1958;DHT22;979;51.076;13.748;2022-11-02T21:00:38;9.60;72.20
1958;DHT22;979;51.076;13.748;2022-11-02T21:03:09;9.50;72.30
1958;DHT22;979;51.076;13.748;2022-11-02T21:05:52;9.40;72.20
1958;DHT22;979;51.076;13.748;2022-11-02T21:12:06;9.30;72.20
1958;DHT22;979;51.076;13.748;2022-11-02T21:14:53;9.30;72.30
1958;DHT22;979;51.076;13.748;2022-11-02T21:17:23;9.20;72.40
1958;DHT22;979;51.076;13.748;2022-11-02T21:19:54;9.40;72.70
1958;DHT22;979;51.076;13.748;2022-11-02T21:23:19;9.20;72.60
1958;DHT22;979;51.076;13.748;2022-11-02T21:25:59;9.40;73.10
1958;DHT22;979;51.076;13.748;2022-11-02T21:28:37;9.10;72.70
1958;DHT22;979;51.076;13.748;2022-11-02T21:31:15;9.00;72.60
1958;DHT22;979;51.076;13.748;2022-11-02T21:33:56;9.10;72.70
1958;DHT22;979;51.076;13.748;2022-11-02T21:36:26;9.00;72.80
1958;DHT22;979;51.076;13.748;2022-11-02T21:38:59;9.00;72.70
1958;DHT22;979;51.076;13.748;2022-11-02T21:41:32;9.00;72.50
1958;DHT22;979;51.076;13.748;2022-11-02T21:44:12;9.00;73.00
1958;DHT22;979;51.076;13.748;2022-11-02T21:51:25;8.80;72.50
1958;DHT22;979;51.076;13.748;2022-11-02T21:54:21;8.80;72.60
1958;DHT22;979;51.076;13.748;2022-11-02T21:57:14;8.80;73.10
1958;DHT22;979;51.076;13.748;2022-11-02T21:59:56;8.70;73.10
1958;DHT22;979;51.076;13.748;2022-11-02T22:02:24;8.90;73.30
1958;DHT22;979;51.076;13.748;2022-11-02T22:04:53;8.80;73.30
1958;DHT22;979;51.076;13.748;2022-11-02T22:07:25;8.60;73.30
1958;DHT22;979;51.076;13.748;2022-11-02T22:10:23;8.60;73.50
1958;DHT22;979;51.076;13.748;2022-11-02T22:12:51;8.80;73.80
1958;DHT22;979;51.076;13.748;2022-11-02T22:15:37;8.80;73.80
1958;DHT22;979;51.076;13.748;2022-11-02T22:18:06;8.70;73.80
1958;DHT22;979;51.076;13.748;2022-11-02T22:20:40;8.70;74.10
1958;DHT22;979;51.076;13.748;2022-11-02T22:23:13;8.70;74.40
1958;DHT22;979;51.076;13.748;2022-11-02T22:25:55;8.70;74.30
1958;DHT22;979;51.076;13.748;2022-11-02T22:28:28;8.70;74.10
1958;DHT22;979;51.076;13.748;2022-11-02T22:31:12;8.90;74.60
1958;DHT22;979;51.076;13.748;2022-11-02T22:33:45;8.70;74.40
1958;DHT22;979;51.076;13.748;2022-11-02T22:36:15;8.90;74.90
1958;DHT22;979;51.076;13.748;2022-11-02T22:38:46;8.80;74.50
1958;DHT22;979;51.076;13.748;2022-11-02T22:41:17;8.80;74.50
1958;DHT22;979;51.076;13.748;2022-11-02T22:43:46;8.70;74.60
1958;DHT22;979;51.076;13.748;2022-11-02T22:46:15;8.70;74.60
1958;DHT22;979;51.076;13.748;2022-11-02T22:48:43;8.70;75.00
1958;DHT22;979;51.076;13.748;2022-11-02T22:51:11;8.90;75.00
1958;DHT22;979;51.076;13.748;2022-11-02T22:53:40;8.70;74.80
1958;DHT22;979;51.076;13.748;2022-11-02T22:56:10;8.70;74.90
1958;DHT22;979;51.076;13.748;2022-11-02T22:58:41;8.70;74.90
1958;DHT22;979;51.076;13.748;2022-11-02T23:01:12;8.90;75.20
1958;DHT22;979;51.076;13.748;2022-11-02T23:03:42;8.90;75.20
1958;DHT22;979;51.076;13.748;2022-11-02T23:06:11;8.60;75.10
1958;DHT22;979;51.076;13.748;2022-11-02T23:08:41;8.60;75.00
1958;DHT22;979;51.076;13.748;2022-11-02T23:11:11;8.60;75.30
1958;DHT22;979;51.076;13.748;2022-11-02T23:13:53;8.80;75.30
1958;DHT22;979;51.076;13.748;2022-11-02T23:16:23;8.60;75.10
1958;DHT22;979;51.076;13.748;2022-11-02T23:18:59;8.50;75.10
1958;DHT22;979;51.076;13.748;2022-11-02T23:21:55;8.80;75.40
1958;DHT22;979;51.076;13.748;2022-11-02T23:24:42;8.50;75.20
1958;DHT22;979;51.076;13.748;2022-11-02T23:27:29;8.40;75.10
1958;DHT22;979;51.076;13.748;2022-11-02T23:29:59;8.40;75.10
1958;DHT22;979;51.076;13.748;2022-11-02T23:32:58;8.40;75.20
1958;DHT22;979;51.076;13.748;2022-11-02T23:35:27;8.40;75.30
1958;DHT22;979;51.076;13.748;2022-11-02T23:38:12;8.60;75.70
1958;DHT22;979;51.076;13.748;2022-11-02T23:40:40;8.30;75.60
1958;DHT22;979;51.076;13.748;2022-11-02T23:43:12;8.30;75.60
1958;DHT22;979;51.076;13.748;2022-11-02T23:45:43;8.50;75.90
1958;DHT22;979;51.076;13.748;2022-11-02T23:48:21;8.50;76.20
1958;DHT22;979;51.076;13.748;2022-11-02T23:50:50;8.20;75.90
1958;DHT22;979;51.076;13.748;2022-11-02T23:53:36;8.40;76.30
1958;DHT22;979;51.076;13.748;2022-11-02T23:56:32;8.20;76.00
1958;DHT22;979;51.076;13.748;2022-11-02T23:59:17;8.40;76.20
